createdAt,value
2019-02-22T00:00:19.294Z,43.65
2019-02-22T00:01:19.144Z,43.61
2019-02-22T00:02:19.318Z,43.6
2019-02-22T00:03:19.389Z,43.6
2019-02-22T00:04:19.295Z,43.61
2019-02-22T00:05:20.840Z,43.57
2019-02-22T00:06:19.414Z,43.61
2019-02-22T00:07:18.856Z,43.58
2019-02-22T00:08:20.861Z,43.64
2019-02-22T00:09:20.965Z,43.6
2019-02-22T00:10:19.057Z,43.61
2019-02-22T00:11:19.111Z,43.63
2019-02-22T00:12:19.593Z,43.6
2019-02-22T00:13:20.907Z,43.61
2019-02-22T00:14:18.841Z,43.6
2019-02-22T00:15:18.782Z,43.61
2019-02-22T00:16:19.502Z,43.6
2019-02-22T00:17:19.724Z,43.57
2019-02-22T00:18:19.137Z,43.59
2019-02-22T00:19:19.050Z,43.63
2019-02-22T00:20:19.134Z,43.63
2019-02-22T00:21:20.702Z,43.61
2019-02-22T00:22:19.316Z,43.61
2019-02-22T00:23:19.507Z,43.61
2019-02-22T00:24:18.988Z,43.62
2019-02-22T00:25:19.159Z,43.6
2019-02-22T00:26:19.029Z,43.6
2019-02-22T00:27:19.153Z,43.62
2019-02-22T00:28:19.432Z,43.61
2019-02-22T00:29:19.182Z,43.6
2019-02-22T00:30:21.869Z,43.57
2019-02-22T00:31:19.316Z,43.59
2019-02-22T00:32:18.917Z,43.6
2019-02-22T00:33:19.178Z,43.59
2019-02-22T00:34:20.532Z,43.62
2019-02-22T00:35:20.741Z,43.62
2019-02-22T00:36:20.141Z,43.67
2019-02-22T00:37:19.986Z,43.63
2019-02-22T00:38:19.154Z,43.63
2019-02-22T00:41:19.580Z,43.64
2019-02-22T00:42:18.869Z,43.64
2019-02-22T00:43:19.052Z,43.67
2019-02-22T00:44:19.243Z,43.61
2019-02-22T00:45:19.706Z,43.65
2019-02-22T00:46:19.307Z,43.6
2019-02-22T00:47:19.500Z,43.65
2019-02-22T00:48:18.829Z,43.7
2019-02-22T00:49:18.963Z,43.64
2019-02-22T00:50:18.836Z,43.65
2019-02-22T00:51:19.907Z,43.66
2019-02-22T00:52:19.435Z,43.66
2019-02-22T00:53:18.974Z,43.67
2019-02-22T00:54:19.057Z,43.65
2019-02-22T00:55:19.121Z,43.7
2019-02-22T00:56:19.874Z,43.61
2019-02-22T00:57:19.691Z,43.67
2019-02-22T00:58:19.390Z,43.67
2019-02-22T00:59:18.867Z,43.6
2019-02-22T01:00:19.185Z,43.63
2019-02-22T01:01:19.154Z,43.66
2019-02-22T01:02:19.429Z,43.66
2019-02-22T01:03:19.221Z,43.61
2019-02-22T01:04:19.213Z,43.63
2019-02-22T01:05:19.042Z,43.61
2019-02-22T01:06:19.323Z,43.65
2019-02-22T01:07:19.138Z,43.62
2019-02-22T01:08:19.009Z,43.64
2019-02-22T01:09:19.149Z,43.67
2019-02-22T01:10:18.951Z,43.65
2019-02-22T01:11:19.592Z,43.68
2019-02-22T01:12:19.165Z,43.64
2019-02-22T01:13:18.902Z,43.68
2019-02-22T01:14:19.437Z,43.64
2019-02-22T01:15:19.416Z,43.64
2019-02-22T01:16:18.990Z,43.68
2019-02-22T01:17:18.946Z,43.63
2019-02-22T01:18:19.006Z,43.69
2019-02-22T01:19:20.475Z,43.68
2019-02-22T01:20:19.112Z,43.68
2019-02-22T01:21:19.401Z,43.67
2019-02-22T01:22:19.247Z,43.69
2019-02-22T01:23:19.515Z,43.69
2019-02-22T01:24:19.103Z,43.66
2019-02-22T01:25:18.983Z,43.65
2019-02-22T01:26:20.904Z,43.64
2019-02-22T01:27:18.812Z,43.65
2019-02-22T01:28:19.723Z,43.69
2019-02-22T01:29:19.088Z,43.65
2019-02-22T01:30:19.134Z,43.62
2019-02-22T01:31:19.180Z,43.66
2019-02-22T01:32:19.152Z,43.66
2019-02-22T01:33:18.960Z,43.64
2019-02-22T01:34:20.935Z,43.71
2019-02-22T01:35:19.000Z,43.72
2019-02-22T01:36:19.156Z,43.73
2019-02-22T01:37:18.930Z,43.7
2019-02-22T01:38:18.794Z,43.69
2019-02-22T01:39:18.817Z,43.68
2019-02-22T01:40:18.992Z,43.68
2019-02-22T01:41:18.816Z,43.68
2019-02-22T01:42:18.891Z,43.73
2019-02-22T01:43:19.134Z,43.67
2019-02-22T01:44:20.316Z,43.67
2019-02-22T01:45:19.323Z,43.69
2019-02-22T01:46:18.961Z,43.67
2019-02-22T01:47:19.317Z,43.67
2019-02-22T01:48:19.138Z,43.68
2019-02-22T01:49:19.300Z,43.68
2019-02-22T01:50:19.266Z,43.68
2019-02-22T01:51:19.300Z,43.66
2019-02-22T01:52:19.160Z,43.67
2019-02-22T01:53:19.404Z,43.67
2019-02-22T01:54:19.809Z,43.67
2019-02-22T01:55:19.181Z,43.66
2019-02-22T01:56:18.958Z,43.69
2019-02-22T01:57:18.774Z,43.67
2019-02-22T01:58:18.839Z,43.68
2019-02-22T01:59:18.969Z,43.64
2019-02-22T02:00:20.857Z,43.67
2019-02-22T02:01:19.268Z,43.71
2019-02-22T02:02:18.735Z,43.68
2019-02-22T02:03:19.131Z,43.63
2019-02-22T02:04:18.914Z,43.67
2019-02-22T02:05:18.847Z,43.7
2019-02-22T02:06:19.299Z,43.68
2019-02-22T02:07:18.843Z,43.7
2019-02-22T02:08:18.928Z,43.69
2019-02-22T02:09:19.236Z,43.69
2019-02-22T02:10:18.819Z,43.7
2019-02-22T02:11:19.000Z,43.66
2019-02-22T02:12:19.099Z,43.67
2019-02-22T02:13:19.091Z,43.69
2019-02-22T02:14:19.326Z,43.65
2019-02-22T02:15:19.155Z,43.7
2019-02-22T02:16:19.078Z,43.64
2019-02-22T02:17:19.227Z,43.64
2019-02-22T02:18:19.761Z,43.69
2019-02-22T02:19:18.882Z,43.65
2019-02-22T02:20:20.275Z,43.66
2019-02-22T02:21:19.249Z,43.68
2019-02-22T02:22:19.504Z,43.66
2019-02-22T02:23:20.920Z,43.69
2019-02-22T02:24:18.930Z,43.67
2019-02-22T02:25:19.807Z,43.67
2019-02-22T02:26:20.014Z,43.67
2019-02-22T02:27:18.720Z,43.66
2019-02-22T02:28:19.862Z,43.69
2019-02-22T02:29:19.226Z,43.65
2019-02-22T02:30:19.372Z,43.64
2019-02-22T02:31:19.201Z,43.64
2019-02-22T02:32:19.401Z,43.64
2019-02-22T02:33:19.426Z,43.66
2019-02-22T02:34:20.918Z,43.64
2019-02-22T02:35:18.923Z,43.64
2019-02-22T02:36:19.181Z,43.66
2019-02-22T02:37:19.389Z,43.65
2019-02-22T02:38:21.060Z,43.62
2019-02-22T02:39:19.051Z,43.66
2019-02-22T02:40:19.633Z,43.66
2019-02-22T02:41:19.262Z,43.62
2019-02-22T02:42:19.184Z,43.63
2019-02-22T02:43:19.264Z,43.66
2019-02-22T02:44:19.037Z,43.63
2019-02-22T02:45:19.550Z,43.68
2019-02-22T02:46:19.531Z,43.7
2019-02-22T02:47:20.007Z,43.67
2019-02-22T02:48:20.017Z,43.65
2019-02-22T02:49:19.076Z,43.67
2019-02-22T02:50:19.045Z,43.65
2019-02-22T02:51:19.978Z,43.66
2019-02-22T02:52:19.688Z,43.68
2019-02-22T02:53:19.270Z,43.66
2019-02-22T02:54:19.495Z,43.71
2019-02-22T02:55:19.321Z,43.67
2019-02-22T02:56:20.889Z,43.68
2019-02-22T02:57:19.599Z,43.67
2019-02-22T02:58:19.252Z,43.62
2019-02-22T02:59:19.538Z,43.65
2019-02-22T03:00:19.021Z,43.64
2019-02-22T03:01:19.144Z,43.69
2019-02-22T03:02:19.249Z,43.68
2019-02-22T03:03:19.471Z,43.71
2019-02-22T03:04:20.744Z,43.69
2019-02-22T03:05:19.054Z,43.69
2019-02-22T03:06:18.899Z,43.67
2019-02-22T03:07:20.786Z,43.65
2019-02-22T03:08:19.711Z,43.69
2019-02-22T03:09:19.082Z,43.68
2019-02-22T03:10:19.225Z,43.65
2019-02-22T03:11:21.665Z,43.64
2019-02-22T03:12:19.202Z,43.67
2019-02-22T03:13:18.841Z,43.65
2019-02-22T03:14:19.422Z,43.67
2019-02-22T03:15:19.885Z,43.64
2019-02-22T03:16:19.088Z,43.69
2019-02-22T03:17:19.207Z,43.64
2019-02-22T03:18:19.048Z,43.66
2019-02-22T03:19:19.259Z,43.63
2019-02-22T03:20:20.796Z,43.67
2019-02-22T03:21:19.175Z,43.69
2019-02-22T03:22:19.913Z,43.66
2019-02-22T03:23:19.511Z,43.71
2019-02-22T03:24:19.407Z,43.66
2019-02-22T03:25:19.158Z,43.67
2019-02-22T03:26:19.122Z,43.66
2019-02-22T03:27:19.272Z,43.66
2019-02-22T03:28:19.118Z,43.66
2019-02-22T03:29:19.123Z,43.7
2019-02-22T03:30:20.064Z,43.65
2019-02-22T03:31:19.851Z,43.69
2019-02-22T03:32:18.923Z,43.68
2019-02-22T03:33:19.184Z,43.68
2019-02-22T03:34:20.132Z,43.63
2019-02-22T03:35:19.156Z,43.67
2019-02-22T03:36:19.110Z,43.66
2019-02-22T03:37:19.310Z,43.68
2019-02-22T03:38:19.212Z,43.66
2019-02-22T03:39:19.349Z,43.68
2019-02-22T03:40:18.842Z,43.67
2019-02-22T03:41:18.953Z,43.65
2019-02-22T03:42:19.368Z,43.67
2019-02-22T03:43:19.226Z,43.69
2019-02-22T03:44:18.930Z,43.71
2019-02-22T03:45:19.293Z,43.67
2019-02-22T03:46:19.069Z,43.72
2019-02-22T03:47:19.173Z,43.67
2019-02-22T03:48:19.338Z,43.68
2019-02-22T03:49:19.064Z,43.67
2019-02-22T03:50:19.325Z,43.7
2019-02-22T03:51:19.532Z,43.67
2019-02-22T03:52:19.614Z,43.7
2019-02-22T03:53:19.327Z,43.69
2019-02-22T03:54:19.336Z,43.73
2019-02-22T03:55:19.329Z,43.71
2019-02-22T03:56:19.174Z,43.71
2019-02-22T03:57:20.041Z,43.73
2019-02-22T03:58:19.172Z,43.73
2019-02-22T03:59:19.316Z,43.7
2019-02-22T04:00:19.999Z,43.68
2019-02-22T04:01:20.748Z,43.72
2019-02-22T04:02:19.080Z,43.71
2019-02-22T04:03:19.161Z,43.69
2019-02-22T04:04:19.209Z,43.69
2019-02-22T04:05:19.156Z,43.72
2019-02-22T04:06:19.400Z,43.67
2019-02-22T04:07:19.316Z,43.72
2019-02-22T04:08:19.242Z,43.74
2019-02-22T04:09:19.286Z,43.71
2019-02-22T04:10:19.321Z,43.74
2019-02-22T04:11:19.196Z,43.72
2019-02-22T04:12:20.126Z,43.71
2019-02-22T04:13:18.979Z,43.75
2019-02-22T04:14:19.861Z,43.72
2019-02-22T04:15:19.192Z,43.76
2019-02-22T04:16:18.894Z,43.71
2019-02-22T04:17:20.815Z,43.73
2019-02-22T04:18:19.701Z,43.76
2019-02-22T04:19:19.432Z,43.71
2019-02-22T04:20:19.230Z,43.73
2019-02-22T04:21:19.008Z,43.77
2019-02-22T04:22:19.088Z,43.71
2019-02-22T04:23:19.356Z,43.7
2019-02-22T04:24:19.059Z,43.72
2019-02-22T04:25:19.181Z,43.72
2019-02-22T04:26:19.070Z,43.67
2019-02-22T04:27:18.948Z,43.7
2019-02-22T04:28:19.749Z,43.66
2019-02-22T04:29:19.271Z,43.7
2019-02-22T04:30:18.828Z,43.72
2019-02-22T04:31:19.224Z,43.71
2019-02-22T04:32:19.168Z,43.7
2019-02-22T04:33:19.195Z,43.72
2019-02-22T04:34:19.404Z,43.7
2019-02-22T04:35:19.829Z,43.74
2019-02-22T04:36:19.439Z,43.72
2019-02-22T04:37:19.208Z,43.71
2019-02-22T04:38:19.075Z,43.69
2019-02-22T04:39:19.030Z,43.7
2019-02-22T04:40:19.168Z,43.76
2019-02-22T04:41:19.332Z,43.73
2019-02-22T04:42:19.045Z,43.74
2019-02-22T04:43:19.097Z,43.76
2019-02-22T04:44:20.872Z,43.67
2019-02-22T04:45:19.055Z,43.7
2019-02-22T04:46:19.530Z,43.78
2019-02-22T04:47:19.073Z,43.75
2019-02-22T04:48:19.245Z,43.79
2019-02-22T04:49:19.211Z,43.78
2019-02-22T04:50:19.220Z,43.8
2019-02-22T04:51:18.948Z,43.87
2019-02-22T04:52:19.064Z,43.82
2019-02-22T04:53:19.061Z,43.85
2019-02-22T04:54:19.170Z,43.88
2019-02-22T04:55:19.738Z,43.91
2019-02-22T04:56:19.407Z,43.86
2019-02-22T04:57:19.423Z,43.87
2019-02-22T04:58:18.846Z,43.84
2019-02-22T04:59:19.089Z,43.82
2019-02-22T05:00:18.740Z,43.8
2019-02-22T05:01:19.235Z,43.75
2019-02-22T05:02:19.156Z,43.72
2019-02-22T05:03:19.200Z,43.72
2019-02-22T05:04:19.152Z,43.73
2019-02-22T05:05:18.811Z,43.72
2019-02-22T05:06:18.769Z,43.66
2019-02-22T05:07:19.065Z,43.62
2019-02-22T05:08:18.985Z,43.68
2019-02-22T05:09:18.810Z,43.65
2019-02-22T05:10:18.981Z,43.65
2019-02-22T05:11:19.212Z,43.62
2019-02-22T05:12:18.816Z,43.61
2019-02-22T05:13:19.341Z,43.63
2019-02-22T05:14:18.972Z,43.69
2019-02-22T05:15:18.962Z,43.72
2019-02-22T05:16:19.186Z,43.72
2019-02-22T05:17:19.111Z,43.72
2019-02-22T05:18:20.037Z,43.7
2019-02-22T05:19:19.010Z,43.7
2019-02-22T05:20:19.475Z,43.7
2019-02-22T05:21:19.284Z,43.72
2019-02-22T05:22:18.857Z,43.68
2019-02-22T05:23:19.367Z,43.73
2019-02-22T05:24:18.952Z,43.68
2019-02-22T05:25:19.442Z,43.7
2019-02-22T05:26:19.011Z,43.65
2019-02-22T05:27:19.416Z,43.7
2019-02-22T05:28:21.032Z,43.71
2019-02-22T05:29:20.734Z,43.72
2019-02-22T05:30:19.557Z,43.72
2019-02-22T05:31:18.885Z,43.71
2019-02-22T05:32:19.208Z,43.78
2019-02-22T05:33:19.764Z,43.73
2019-02-22T05:34:18.743Z,43.71
2019-02-22T05:35:19.348Z,43.72
2019-02-22T05:36:19.372Z,43.73
2019-02-22T05:37:18.889Z,43.71
2019-02-22T05:38:19.041Z,43.76
2019-02-22T05:39:19.987Z,43.72
2019-02-22T05:40:19.350Z,43.75
2019-02-22T05:41:19.236Z,43.65
2019-02-22T05:42:23.790Z,43.7
2019-02-22T05:43:19.216Z,43.72
2019-02-22T05:44:19.179Z,43.72
2019-02-22T05:45:19.057Z,43.72
2019-02-22T05:46:19.528Z,43.71
2019-02-22T05:47:19.361Z,43.69
2019-02-22T05:48:18.931Z,43.7
2019-02-22T05:49:22.899Z,43.71
2019-02-22T05:50:19.203Z,43.7
2019-02-22T05:51:19.181Z,43.76
2019-02-22T05:52:20.718Z,43.67
2019-02-22T05:53:19.083Z,43.73
2019-02-22T05:54:18.934Z,43.68
2019-02-22T05:55:18.854Z,43.72
2019-02-22T05:56:20.752Z,43.76
2019-02-22T05:57:18.922Z,43.67
2019-02-22T05:58:19.367Z,43.67
2019-02-22T05:59:18.936Z,43.69
2019-02-22T06:00:19.341Z,43.65
2019-02-22T06:01:20.835Z,43.72
2019-02-22T06:02:19.841Z,43.71
2019-02-22T06:03:19.140Z,43.68
2019-02-22T06:04:18.881Z,43.71
2019-02-22T06:05:20.628Z,43.69
2019-02-22T06:06:19.147Z,43.73
2019-02-22T06:07:19.368Z,43.73
2019-02-22T06:08:18.997Z,43.71
2019-02-22T06:09:19.023Z,43.65
2019-02-22T06:10:19.267Z,43.67
2019-02-22T06:11:20.815Z,43.7
2019-02-22T06:12:19.228Z,43.64
2019-02-22T06:13:18.977Z,43.63
2019-02-22T06:14:19.297Z,43.63
2019-02-22T06:15:19.196Z,43.56
2019-02-22T06:16:18.764Z,43.66
2019-02-22T06:17:19.153Z,43.65
2019-02-22T06:18:19.422Z,43.65
2019-02-22T06:19:18.988Z,43.59
2019-02-22T06:20:19.002Z,43.61
2019-02-22T06:21:19.291Z,43.61
2019-02-22T06:22:30.291Z,43.59
2019-02-22T06:23:20.034Z,43.58
2019-02-22T06:24:19.800Z,43.62
2019-02-22T06:25:18.900Z,43.62
2019-02-22T06:26:18.979Z,43.59
2019-02-22T06:27:20.088Z,43.6
2019-02-22T06:28:18.748Z,43.55
2019-02-22T06:29:19.195Z,43.5
2019-02-22T06:30:18.919Z,43.54
2019-02-22T06:31:19.006Z,43.55
2019-02-22T06:32:19.907Z,43.56
2019-02-22T06:33:19.013Z,43.56
2019-02-22T06:34:18.906Z,43.53
2019-02-22T06:35:19.146Z,43.53
2019-02-22T06:36:19.051Z,43.51
2019-02-22T06:37:19.174Z,43.54
2019-02-22T06:38:20.098Z,43.54
2019-02-22T06:39:20.671Z,43.48
2019-02-22T06:40:18.823Z,43.48
2019-02-22T06:41:19.005Z,43.51
2019-02-22T06:42:18.682Z,43.53
2019-02-22T06:43:19.066Z,43.5
2019-02-22T06:44:18.799Z,43.5
2019-02-22T06:45:20.051Z,43.5
2019-02-22T06:46:18.892Z,43.49
2019-02-22T06:47:23.183Z,43.46
2019-02-22T06:48:19.018Z,43.49
2019-02-22T06:49:18.919Z,43.46
2019-02-22T06:50:19.039Z,43.48
2019-02-22T06:51:18.901Z,43.42
2019-02-22T06:52:19.765Z,43.47
2019-02-22T06:53:19.711Z,43.41
2019-02-22T06:54:19.372Z,43.43
2019-02-22T06:55:19.005Z,43.47
2019-02-22T06:56:18.841Z,43.44
2019-02-22T06:57:19.271Z,43.4
2019-02-22T06:58:19.621Z,43.41
2019-02-22T06:59:19.243Z,43.41
2019-02-22T07:00:19.134Z,43.4
2019-02-22T07:01:18.996Z,43.43
2019-02-22T07:02:19.351Z,43.39
2019-02-22T07:03:19.250Z,43.39
2019-02-22T07:04:19.922Z,43.39
2019-02-22T07:05:19.787Z,43.38
2019-02-22T07:06:20.231Z,43.39
2019-02-22T07:07:20.603Z,43.4
2019-02-22T07:08:19.605Z,43.39
2019-02-22T07:09:19.095Z,43.38
2019-02-22T07:10:18.833Z,43.31
2019-02-22T07:11:18.955Z,43.34
2019-02-22T07:12:18.991Z,43.4
2019-02-22T07:13:19.055Z,43.36
2019-02-22T07:14:19.108Z,43.35
2019-02-22T07:15:19.211Z,43.36
2019-02-22T07:16:19.148Z,43.3
2019-02-22T07:17:19.207Z,43.31
2019-02-22T07:18:19.133Z,43.36
2019-02-22T07:19:18.895Z,43.32
2019-02-22T07:20:19.063Z,43.35
2019-02-22T07:21:19.520Z,43.29
2019-02-22T07:22:18.702Z,43.3
2019-02-22T07:23:19.346Z,43.35
2019-02-22T07:24:19.582Z,43.29
2019-02-22T07:25:19.200Z,43.3
2019-02-22T07:26:19.201Z,43.3
2019-02-22T07:27:18.895Z,43.33
2019-02-22T07:28:20.655Z,43.3
2019-02-22T07:29:19.253Z,43.28
2019-02-22T07:30:20.764Z,43.28
2019-02-22T07:31:20.379Z,43.32
2019-02-22T07:32:19.293Z,43.29
2019-02-22T07:33:19.752Z,43.27
2019-02-22T07:34:18.798Z,43.23
2019-02-22T07:35:19.064Z,43.25
2019-02-22T07:36:19.088Z,43.28
2019-02-22T07:37:19.080Z,43.26
2019-02-22T07:38:19.482Z,43.23
2019-02-22T07:39:28.587Z,43.22
2019-02-22T07:40:20.381Z,43.2
2019-02-22T07:41:19.009Z,43.22
2019-02-22T07:42:18.969Z,43.22
2019-02-22T07:43:18.931Z,43.25
2019-02-22T07:44:18.884Z,43.2
2019-02-22T07:45:19.424Z,43.23
2019-02-22T07:46:18.833Z,43.22
2019-02-22T07:47:18.819Z,43.22
2019-02-22T07:48:18.957Z,43.22
2019-02-22T07:49:19.019Z,43.19
2019-02-22T07:50:19.055Z,43.24
2019-02-22T07:51:18.823Z,43.22
2019-02-22T07:52:19.535Z,43.25
2019-02-22T07:53:20.598Z,43.28
2019-02-22T07:54:18.893Z,43.28
2019-02-22T07:55:19.112Z,43.41
2019-02-22T07:56:19.546Z,43.58
2019-02-22T07:57:18.783Z,43.85
2019-02-22T07:58:18.566Z,43.47
2019-02-22T07:59:18.643Z,43.4
2019-02-22T08:00:18.894Z,43.44
2019-02-22T08:01:19.006Z,43.43
2019-02-22T08:02:19.430Z,43.42
2019-02-22T08:03:20.963Z,43.4
2019-02-22T08:04:18.981Z,43.34
2019-02-22T08:05:18.875Z,43.33
2019-02-22T08:06:19.187Z,43.34
2019-02-22T08:07:20.657Z,43.34
2019-02-22T08:08:19.169Z,43.26
2019-02-22T08:09:18.957Z,43.29
2019-02-22T08:10:19.102Z,43.26
2019-02-22T08:11:18.951Z,43.32
2019-02-22T08:12:19.861Z,43.22
2019-02-22T08:13:20.855Z,43.27
2019-02-22T08:14:19.156Z,43.29
2019-02-22T08:15:19.533Z,43.28
2019-02-22T08:16:18.738Z,43.26
2019-02-22T08:17:20.189Z,43.25
2019-02-22T08:18:19.176Z,43.22
2019-02-22T08:19:18.963Z,43.19
2019-02-22T08:20:19.279Z,43.2
2019-02-22T08:21:19.284Z,43.22
2019-02-22T08:22:21.067Z,43.25
2019-02-22T08:23:18.991Z,43.16
2019-02-22T08:24:18.849Z,43.19
2019-02-22T08:25:18.846Z,43.18
2019-02-22T08:26:18.844Z,43.19
2019-02-22T08:27:19.182Z,43.18
2019-02-22T08:28:19.272Z,43.18
2019-02-22T08:29:19.556Z,43.14
2019-02-22T08:30:18.860Z,43.13
2019-02-22T08:31:18.943Z,43.13
2019-02-22T08:32:19.044Z,43.15
2019-02-22T08:33:19.268Z,43.12
2019-02-22T08:34:20.509Z,43.14
2019-02-22T08:35:18.864Z,43.1
2019-02-22T08:36:18.999Z,43.16
2019-02-22T08:37:18.790Z,43.13
2019-02-22T08:38:19.187Z,43.13
2019-02-22T08:39:19.105Z,43.14
2019-02-22T08:40:19.060Z,43.15
2019-02-22T08:41:18.869Z,43.12
2019-02-22T08:42:18.930Z,43.04
2019-02-22T08:43:19.039Z,43.1
2019-02-22T08:44:18.948Z,43.1
2019-02-22T08:45:19.770Z,43.06
2019-02-22T08:46:19.073Z,43.11
2019-02-22T08:47:19.012Z,43.07
2019-02-22T08:48:19.659Z,43.07
2019-02-22T08:49:19.403Z,43.1
2019-02-22T08:50:19.000Z,43.07
2019-02-22T08:51:19.213Z,43.08
2019-02-22T08:52:19.180Z,43.04
2019-02-22T08:53:19.318Z,43.08
2019-02-22T08:54:19.519Z,43.04
2019-02-22T08:55:18.930Z,43.08
2019-02-22T08:56:20.027Z,43.02
2019-02-22T08:57:19.032Z,43.05
2019-02-22T08:58:18.783Z,43.06
2019-02-22T08:59:19.139Z,43.06
2019-02-22T09:00:18.758Z,43.06
2019-02-22T09:01:19.044Z,43
2019-02-22T09:02:19.098Z,43.03
2019-02-22T09:03:18.952Z,43.02
2019-02-22T09:04:19.532Z,43.01
2019-02-22T09:05:18.929Z,43.04
2019-02-22T09:06:18.707Z,43.02
2019-02-22T09:07:19.530Z,43.05
2019-02-22T09:08:18.931Z,43.02
2019-02-22T09:09:18.842Z,43.01
2019-02-22T09:10:19.266Z,43.01
2019-02-22T09:11:19.015Z,43.01
2019-02-22T09:12:19.101Z,43.02
2019-02-22T09:13:19.170Z,42.97
2019-02-22T09:14:18.940Z,42.99
2019-02-22T09:15:18.950Z,42.97
2019-02-22T09:16:19.076Z,42.98
2019-02-22T09:17:19.281Z,42.95
2019-02-22T09:18:19.502Z,42.99
2019-02-22T09:19:19.810Z,42.97
2019-02-22T09:20:18.874Z,42.95
2019-02-22T09:21:19.520Z,42.9
2019-02-22T09:22:23.614Z,42.96
2019-02-22T09:23:19.343Z,42.96
2019-02-22T09:24:19.564Z,42.94
2019-02-22T09:25:18.839Z,42.93
2019-02-22T09:26:19.024Z,42.89
2019-02-22T09:27:19.147Z,42.92
2019-02-22T09:28:18.805Z,42.96
2019-02-22T09:29:19.265Z,42.92
2019-02-22T09:30:19.292Z,42.91
2019-02-22T09:31:18.909Z,42.92
2019-02-22T09:32:19.124Z,42.89
2019-02-22T09:33:19.185Z,42.96
2019-02-22T09:34:19.161Z,42.96
2019-02-22T09:35:19.154Z,42.93
2019-02-22T09:36:19.249Z,43.07
2019-02-22T09:37:20.583Z,43.34
2019-02-22T09:38:18.819Z,43.44
2019-02-22T09:39:18.855Z,43.65
2019-02-22T09:40:19.243Z,43.76
2019-02-22T09:41:20.242Z,44.04
2019-02-22T09:42:18.959Z,44.02
2019-02-22T09:43:18.952Z,44.09
2019-02-22T09:44:19.018Z,44.18
2019-02-22T09:45:18.873Z,44.28
2019-02-22T09:46:18.763Z,44.53
2019-02-22T09:47:18.951Z,44.65
2019-02-22T09:48:18.902Z,44.67
2019-02-22T09:49:19.142Z,44.85
2019-02-22T09:50:19.455Z,44.92
2019-02-22T09:51:19.091Z,44.87
2019-02-22T09:52:18.643Z,44.88
2019-02-22T09:53:20.698Z,45.21
2019-02-22T09:54:18.707Z,45.24
2019-02-22T09:55:19.009Z,45.13
2019-02-22T09:56:19.864Z,45.14
2019-02-22T09:57:18.955Z,45.19
2019-02-22T09:58:20.641Z,45.26
2019-02-22T09:59:18.977Z,45.22
2019-02-22T10:00:18.867Z,45.31
2019-02-22T10:01:19.531Z,45.22
2019-02-22T10:02:18.925Z,45.32
2019-02-22T10:03:19.630Z,45.36
2019-02-22T10:04:19.171Z,45.39
2019-02-22T10:05:19.152Z,45.53
2019-02-22T10:06:18.722Z,45.51
2019-02-22T10:07:19.236Z,45.44
2019-02-22T10:08:19.208Z,45.48
2019-02-22T10:09:18.857Z,45.5
2019-02-22T10:10:18.900Z,45.47
2019-02-22T10:11:19.165Z,45.58
2019-02-22T10:12:19.430Z,45.56
2019-02-22T10:13:19.401Z,45.57
2019-02-22T10:14:20.763Z,45.56
2019-02-22T10:15:19.134Z,45.63
2019-02-22T10:16:19.189Z,45.55
2019-02-22T10:17:18.803Z,45.61
2019-02-22T10:18:18.833Z,45.55
2019-02-22T10:19:18.921Z,45.58
2019-02-22T10:20:18.954Z,45.64
2019-02-22T10:21:19.137Z,45.76
2019-02-22T10:22:19.172Z,45.76
2019-02-22T10:23:19.059Z,45.74
2019-02-22T10:24:19.051Z,45.78
2019-02-22T10:25:20.386Z,45.74
2019-02-22T10:26:21.831Z,45.87
2019-02-22T10:27:18.867Z,45.84
2019-02-22T10:28:19.023Z,45.67
2019-02-22T10:29:19.188Z,45.73
2019-02-22T10:30:18.738Z,45.7
2019-02-22T10:31:18.748Z,45.75
2019-02-22T10:32:19.896Z,45.77
2019-02-22T10:33:18.902Z,45.74
2019-02-22T10:34:18.761Z,45.81
2019-02-22T10:35:18.793Z,45.71
2019-02-22T10:36:18.967Z,45.71
2019-02-22T10:37:18.739Z,45.83
2019-02-22T10:38:18.899Z,45.83
2019-02-22T10:39:18.814Z,45.83
2019-02-22T10:40:18.835Z,45.83
2019-02-22T10:41:19.259Z,45.9
2019-02-22T10:42:19.076Z,45.95
2019-02-22T10:43:19.104Z,45.93
2019-02-22T10:44:18.848Z,45.95
2019-02-22T10:45:19.055Z,45.96
2019-02-22T10:46:19.026Z,45.92
2019-02-22T10:47:20.582Z,45.94
2019-02-22T10:48:19.803Z,45.96
2019-02-22T10:49:18.963Z,45.91
2019-02-22T10:50:20.592Z,45.71
2019-02-22T10:51:18.821Z,45.65
2019-02-22T10:52:19.262Z,45.49
2019-02-22T10:53:18.896Z,45.42
2019-02-22T10:54:18.864Z,45.34
2019-02-22T10:55:19.398Z,45.25
2019-02-22T10:56:18.696Z,45.19
2019-02-22T10:57:19.097Z,45.16
2019-02-22T10:58:18.992Z,45.09
2019-02-22T10:59:18.952Z,45.1
2019-02-22T11:00:18.819Z,45.04
2019-02-22T11:01:19.144Z,44.99
2019-02-22T11:02:18.759Z,44.95
2019-02-22T11:03:19.030Z,44.96
2019-02-22T11:04:19.273Z,45
2019-02-22T11:05:19.774Z,45.2
2019-02-22T11:06:19.018Z,44.67
2019-02-22T11:07:18.837Z,44.56
2019-02-22T11:08:19.045Z,44.98
2019-02-22T11:09:19.906Z,44.85
2019-02-22T11:10:19.751Z,44.74
2019-02-22T11:11:18.718Z,44.53
2019-02-22T11:12:19.514Z,44.42
2019-02-22T11:13:21.782Z,44.41
2019-02-22T11:14:30.246Z,44.35
2019-02-22T11:15:18.936Z,44.22
2019-02-22T11:16:19.225Z,44.2
2019-02-22T11:17:19.034Z,44.19
2019-02-22T11:18:19.111Z,44.1
2019-02-22T11:19:18.891Z,44.33
2019-02-22T11:20:20.648Z,44.14
2019-02-22T11:21:19.236Z,44.63
2019-02-22T11:22:18.835Z,43.99
2019-02-22T11:23:19.195Z,43.71
2019-02-22T11:24:20.671Z,44.28
2019-02-22T11:25:18.550Z,43.71
2019-02-22T11:26:19.129Z,43.82
2019-02-22T11:27:19.483Z,43.89
2019-02-22T11:28:18.800Z,44.01
2019-02-22T11:29:20.615Z,44.72
2019-02-22T11:30:19.687Z,44.7
2019-02-22T11:31:18.985Z,44.8
2019-02-22T11:32:19.884Z,44.63
2019-02-22T11:33:19.723Z,44.52
2019-02-22T11:34:18.954Z,44.91
2019-02-22T11:35:18.778Z,44.3
2019-02-22T11:36:19.279Z,44.1
2019-02-22T11:37:18.849Z,44.21
2019-02-22T11:38:18.972Z,44.14
2019-02-22T11:39:18.911Z,44.16
2019-02-22T11:40:19.171Z,44.25
2019-02-22T11:41:18.790Z,44.32
2019-02-22T11:42:20.531Z,44.18
2019-02-22T11:43:18.782Z,44.24
2019-02-22T11:44:18.852Z,44.21
2019-02-22T11:45:18.863Z,44.26
2019-02-22T11:46:19.157Z,44.34
2019-02-22T11:47:18.814Z,44.78
2019-02-22T11:48:18.932Z,44.32
2019-02-22T11:49:18.637Z,44.34
2019-02-22T11:50:18.471Z,44.33
2019-02-22T11:51:19.008Z,44.34
2019-02-22T11:52:18.863Z,44.32
2019-02-22T11:53:18.681Z,44.31
2019-02-22T11:54:18.991Z,44.25
2019-02-22T11:55:20.676Z,44.24
2019-02-22T11:56:18.971Z,44.07
2019-02-22T11:57:20.668Z,44.21
2019-02-22T11:58:19.191Z,44.13
2019-02-22T11:59:18.799Z,44.18
2019-02-22T12:00:18.766Z,44.13
2019-02-22T12:01:19.128Z,43.96
2019-02-22T12:02:18.944Z,43.96
2019-02-22T12:03:25.488Z,44.05
2019-02-22T12:04:19.303Z,44.31
2019-02-22T12:05:18.541Z,43.93
2019-02-22T12:06:18.974Z,43.8
2019-02-22T12:07:19.181Z,43.89
2019-02-22T12:08:18.985Z,43.87
2019-02-22T12:09:18.908Z,43.96
2019-02-22T12:10:18.943Z,43.92
2019-02-22T12:11:19.243Z,43.92
2019-02-22T12:12:18.985Z,43.95
2019-02-22T12:13:19.227Z,43.95
2019-02-22T12:14:18.744Z,43.98
2019-02-22T12:15:19.138Z,44.25
2019-02-22T12:16:19.148Z,44.32
2019-02-22T12:17:19.645Z,43.93
2019-02-22T12:18:19.155Z,43.94
2019-02-22T12:19:20.552Z,43.93
2019-02-22T12:20:18.684Z,43.94
2019-02-22T12:21:18.966Z,43.95
2019-02-22T12:22:18.871Z,43.94
2019-02-22T12:23:18.988Z,43.93
2019-02-22T12:24:19.085Z,43.97
2019-02-22T12:25:20.139Z,43.98
2019-02-22T12:26:19.755Z,43.99
2019-02-22T12:27:19.543Z,43.97
2019-02-22T12:28:18.605Z,43.99
2019-02-22T12:29:18.629Z,43.98
2019-02-22T12:30:18.767Z,44
2019-02-22T12:31:19.309Z,43.98
2019-02-22T12:32:18.848Z,44.03
2019-02-22T12:33:18.936Z,44.09
2019-02-22T12:34:19.733Z,44.12
2019-02-22T12:35:18.756Z,44
2019-02-22T12:36:18.872Z,44.05
2019-02-22T12:37:19.915Z,44.04
2019-02-22T12:38:18.829Z,44
2019-02-22T12:39:19.488Z,44
2019-02-22T12:40:19.117Z,43.95
2019-02-22T12:41:18.764Z,43.99
2019-02-22T12:42:18.851Z,43.97
2019-02-22T12:43:18.917Z,43.92
2019-02-22T12:44:18.974Z,43.98
2019-02-22T12:45:18.768Z,43.93
2019-02-22T12:46:18.817Z,43.93
2019-02-22T12:47:19.125Z,43.91
2019-02-22T12:48:19.395Z,43.94
2019-02-22T12:49:18.969Z,43.87
2019-02-22T12:50:18.719Z,43.89
2019-02-22T12:51:19.115Z,43.86
2019-02-22T12:52:18.786Z,43.83
2019-02-22T12:53:18.656Z,43.87
2019-02-22T12:54:18.961Z,43.81
2019-02-22T12:55:18.629Z,43.81
2019-02-22T12:57:19.225Z,43.78
2019-02-22T12:58:19.257Z,43.82